Terminal Aerodrome Forecast
Issued by NWS

Home | Current Version | Previous Version | Text Only | Print | Product List | Glossary On
Versions: 1 2 3 4 5 6 7 8 9 10 11 12 13 14 15 16 17 18 19 20 21 22 23 24 25
000
FTUS42 KFFC 221722
TAFFTY
TAF
KFTY 221722Z 2218/2318 19006KT P6SM SCT015 BKN035
     FM230100 15003KT P6SM SCT080
     FM230900 12004KT 5SM BR BKN015
     FM231100 12006KT 4SM BR BKN005
     FM231500 15008KT P6SM BKN015=

USA.gov is the U.S. government's official web portal to all federal, state and local government web resources and services.